createdAt,value
2023-03-30T00:03:55.414Z,11.52
2023-03-30T00:08:57.495Z,13.35
2023-03-30T00:13:59.044Z,15.00
2023-03-30T00:19:00.516Z,16.55
2023-03-30T00:24:02.011Z,17.00
2023-03-30T00:29:03.506Z,12.48
2023-03-30T00:34:04.992Z,13.10
2023-03-30T00:39:06.760Z,15.55
2023-03-30T00:44:28.708Z,10.10
2023-03-30T00:49:31.980Z,10.75
2023-03-30T00:54:33.485Z,11.88
2023-03-30T00:59:35.019Z,11.05
2023-03-30T01:04:37.649Z,11.80
2023-03-30T01:09:42.915Z,11.55
2023-03-30T01:14:44.365Z,11.07
2023-03-30T01:20:03.241Z,13.27
2023-03-30T01:25:07.446Z,11.38
2023-03-30T01:30:18.199Z,12.45
2023-03-30T01:35:28.441Z,13.05
2023-03-30T01:40:44.454Z,9.60
2023-03-30T01:45:57.497Z,10.30
2023-03-30T01:51:06.200Z,10.77
2023-03-30T01:56:12.329Z,12.17
2023-03-30T02:01:17.485Z,12.43
2023-03-30T02:06:41.321Z,9.73
2023-03-30T02:11:45.022Z,15.48
2023-03-30T02:16:48.200Z,12.30
2023-03-30T02:21:50.555Z,10.68
2023-03-30T02:26:52.968Z,11.23
2023-03-30T02:31:56.708Z,11.45
2023-03-30T02:37:16.672Z,14.05
2023-03-30T02:42:18.098Z,10.20
2023-03-30T02:47:38.740Z,12.07
2023-03-30T02:52:46.106Z,11.18
2023-03-30T02:58:07.463Z,11.50
2023-03-30T03:03:14.299Z,11.95
2023-03-30T03:08:17.837Z,10.43
2023-03-30T03:13:20.805Z,9.80
2023-03-30T03:18:22.825Z,13.43
2023-03-30T03:23:24.283Z,11.27
2023-03-30T03:28:25.967Z,10.93
2023-03-30T03:33:27.514Z,12.07
2023-03-30T03:38:29.609Z,11.98
2023-03-30T03:43:31.156Z,13.63
2023-03-30T03:48:32.553Z,11.00
2023-03-30T03:53:33.983Z,11.98
2023-03-30T03:58:35.386Z,17.95
2023-03-30T04:03:36.790Z,10.32
2023-03-30T04:08:38.197Z,13.02
2023-03-30T04:13:40.368Z,10.43
2023-03-30T04:18:41.780Z,12.90
2023-03-30T04:23:45.950Z,12.85
2023-03-30T04:28:47.685Z,12.70
2023-03-30T04:33:53.489Z,12.30
2023-03-30T04:39:06.989Z,14.60
2023-03-30T04:44:09.831Z,12.05
2023-03-30T04:49:11.351Z,14.77
2023-03-30T04:54:12.752Z,11.23
2023-03-30T04:59:14.228Z,13.52
2023-03-30T05:04:15.698Z,13.85
2023-03-30T05:09:17.167Z,14.85
2023-03-30T05:14:18.600Z,15.32
2023-03-30T05:19:20.117Z,14.32
2023-03-30T05:24:21.588Z,16.05
2023-03-30T05:29:23.066Z,13.85
2023-03-30T05:34:25.798Z,15.15
2023-03-30T05:39:27.285Z,15.35
2023-03-30T05:44:28.748Z,21.33
2023-03-30T05:49:31.495Z,19.40
2023-03-30T05:54:32.930Z,21.65
2023-03-30T05:59:34.338Z,25.65
2023-03-30T06:04:35.733Z,24.58
2023-03-30T06:09:37.509Z,22.15
2023-03-30T06:14:38.959Z,19.02
2023-03-30T06:19:41.926Z,19.35
2023-03-30T06:24:43.377Z,20.20
2023-03-30T06:29:45.265Z,16.23
2023-03-30T06:34:47.152Z,20.00
2023-03-30T06:39:48.631Z,23.55
2023-03-30T06:44:50.122Z,18.88
2023-03-30T06:49:51.821Z,24.65
2023-03-30T06:54:53.445Z,21.70
2023-03-30T06:59:54.846Z,25.33
2023-03-30T07:04:56.275Z,23.95
2023-03-30T07:09:57.719Z,28.73
2023-03-30T07:14:59.135Z,33.47
2023-03-30T07:20:02.309Z,26.17
2023-03-30T07:25:04.692Z,25.90
2023-03-30T07:30:17.943Z,27.98
2023-03-30T07:35:19.859Z,28.48
2023-03-30T07:40:21.332Z,28.13
2023-03-30T07:45:22.890Z,26.23
2023-03-30T07:50:25.720Z,30.30
2023-03-30T07:55:28.777Z,31.38
2023-03-30T08:00:31.099Z,29.73
2023-03-30T08:05:32.882Z,26.45
2023-03-30T08:10:34.824Z,37.15
2023-03-30T08:15:36.373Z,20.40
2023-03-30T08:20:37.853Z,20.17
2023-03-30T08:25:39.301Z,19.58
2023-03-30T08:30:40.904Z,20.55
2023-03-30T08:35:46.705Z,24.67
2023-03-30T08:40:49.306Z,20.15
2023-03-30T08:45:51.897Z,22.30
2023-03-30T08:51:06.115Z,28.30
2023-03-30T08:56:15.465Z,29.75
2023-03-30T09:01:34.763Z,28.60
2023-03-30T09:06:53.733Z,24.50
2023-03-30T09:12:02.400Z,22.58
2023-03-30T09:17:07.646Z,30.92
2023-03-30T09:22:12.599Z,31.42
2023-03-30T09:27:22.744Z,21.67
2023-03-30T09:32:33.367Z,30.80
2023-03-30T09:37:35.899Z,26.48
2023-03-30T09:42:44.931Z,23.23
2023-03-30T09:47:46.676Z,26.23
2023-03-30T09:53:01.749Z,23.27
2023-03-30T09:58:19.902Z,30.58
2023-03-30T10:03:22.843Z,27.75
2023-03-30T10:08:25.703Z,30.15
2023-03-30T10:13:32.545Z,23.90
2023-03-30T10:18:41.465Z,29.90
2023-03-30T10:23:44.896Z,22.80
2023-03-30T10:28:52.712Z,30.60
2023-03-30T10:33:58.167Z,24.85
2023-03-30T10:39:12.496Z,23.90
2023-03-30T10:44:20.108Z,27.35
2023-03-30T10:49:21.535Z,27.98
2023-03-30T10:54:23.004Z,31.15
2023-03-30T10:59:53.712Z,31.60
2023-03-30T11:05:22.899Z,22.90
2023-03-30T11:10:36.844Z,27.80
2023-03-30T11:15:46.788Z,25.17
2023-03-30T11:21:11.427Z,30.20
2023-03-30T11:26:17.229Z,27.25
2023-03-30T11:31:27.292Z,24.50
2023-03-30T11:36:49.610Z,30.23
2023-03-30T11:42:18.018Z,29.02
2023-03-30T11:47:38.301Z,34.25
2023-03-30T11:53:09.294Z,27.33
2023-03-30T11:58:11.953Z,26.95
2023-03-30T12:03:18.730Z,24.33
2023-03-30T12:08:26.853Z,30.85
2023-03-30T12:13:38.160Z,22.40
2023-03-30T12:19:10.663Z,30.60
2023-03-30T12:24:44.290Z,29.90
2023-03-30T12:34:57.161Z,24.92
2023-03-30T12:40:08.853Z,25.33
2023-03-30T12:45:29.131Z,29.48
2023-03-30T12:50:49.070Z,28.85
2023-03-30T13:01:02.587Z,35.20
2023-03-30T13:06:06.120Z,26.92
2023-03-30T13:11:09.211Z,18.92
2023-03-30T13:16:12.842Z,27.90
2023-03-30T13:21:22.995Z,25.08
2023-03-30T13:26:34.510Z,30.20
2023-03-30T13:31:39.395Z,25.73
2023-03-30T13:36:44.468Z,29.20
2023-03-30T13:42:11.885Z,34.65
2023-03-30T13:47:32.087Z,33.35
2023-03-30T13:52:38.934Z,29.50
2023-03-30T13:57:41.523Z,31.10
2023-03-30T14:02:43.023Z,31.15
2023-03-30T14:07:47.155Z,30.40
2023-03-30T14:12:51.427Z,29.92
2023-03-30T14:17:55.967Z,28.13
2023-03-30T14:22:58.584Z,33.75
2023-03-30T14:28:07.614Z,31.63
2023-03-30T14:33:11.254Z,29.88
2023-03-30T14:38:17.052Z,37.58
2023-03-30T14:43:22.600Z,30.20
2023-03-30T14:48:24.008Z,24.85
2023-03-30T14:53:26.970Z,32.97
2023-03-30T14:58:31.237Z,33.85
2023-03-30T15:03:34.815Z,35.85
2023-03-30T15:08:37.715Z,26.05
2023-03-30T15:13:40.863Z,27.60
2023-03-30T15:18:42.633Z,21.77
2023-03-30T15:23:45.445Z,22.83
2023-03-30T15:28:48.832Z,30.98
2023-03-30T15:33:54.434Z,34.47
2023-03-30T15:38:58.754Z,36.40
2023-03-30T15:44:13.339Z,34.60
2023-03-30T15:49:16.188Z,27.23
2023-03-30T15:54:20.390Z,29.65
2023-03-30T15:59:24.476Z,29.75
2023-03-30T16:04:25.959Z,29.50
2023-03-30T16:09:27.487Z,36.80
2023-03-30T16:14:31.075Z,26.98
2023-03-30T16:19:32.794Z,31.55
2023-03-30T16:24:34.278Z,26.02
2023-03-30T16:29:36.953Z,32.83
2023-03-30T16:34:39.362Z,22.65
2023-03-30T16:39:42.658Z,30.30
2023-03-30T16:44:44.142Z,30.33
2023-03-30T16:49:46.287Z,34.20
2023-03-30T16:54:47.650Z,35.95
2023-03-30T16:59:49.099Z,25.88
2023-03-30T17:04:50.769Z,34.50
2023-03-30T17:09:52.203Z,29.48
2023-03-30T17:14:53.630Z,28.50
2023-03-30T17:19:56.285Z,29.10
2023-03-30T17:24:57.715Z,27.77
2023-03-30T17:29:59.126Z,31.23
2023-03-30T17:35:00.841Z,32.22
2023-03-30T17:40:10.121Z,27.92
2023-03-30T17:45:13.185Z,26.25
2023-03-30T17:50:17.386Z,24.90
2023-03-30T17:55:19.532Z,31.85
2023-03-30T18:00:25.542Z,27.58
2023-03-30T18:05:28.584Z,28.27
2023-03-30T18:10:32.743Z,22.45
2023-03-30T18:15:34.290Z,27.17
2023-03-30T18:20:43.832Z,34.17
2023-03-30T18:25:45.604Z,30.75
2023-03-30T18:30:47.663Z,28.73
2023-03-30T18:35:51.046Z,32.10
2023-03-30T18:40:58.228Z,32.00
2023-03-30T18:46:01.708Z,32.45
2023-03-30T18:51:03.573Z,23.80
2023-03-30T18:56:05.193Z,34.47
2023-03-30T19:01:06.916Z,29.13
2023-03-30T19:06:13.724Z,29.90
2023-03-30T19:11:25.767Z,33.75
2023-03-30T19:16:27.247Z,28.33
2023-03-30T19:21:28.826Z,27.33
2023-03-30T19:26:30.312Z,23.02
2023-03-30T19:31:31.784Z,26.10
2023-03-30T19:36:35.941Z,23.20
2023-03-30T19:41:37.504Z,32.95
2023-03-30T19:46:39.091Z,26.75
2023-03-30T19:51:40.767Z,29.85
2023-03-30T19:56:42.454Z,26.83
2023-03-30T20:01:44.390Z,23.45
2023-03-30T20:06:45.843Z,30.48
2023-03-30T20:11:47.457Z,34.08
2023-03-30T20:16:49.929Z,26.42
2023-03-30T20:21:52.350Z,25.30
2023-03-30T20:26:53.758Z,29.67
2023-03-30T20:31:55.455Z,28.88
2023-03-30T20:36:57.044Z,36.47
2023-03-30T20:41:59.163Z,27.98
2023-03-30T20:47:02.606Z,24.27
2023-03-30T20:52:04.167Z,35.13
2023-03-30T20:57:05.728Z,27.52
2023-03-30T21:02:07.371Z,31.65
2023-03-30T21:07:10.328Z,29.80
2023-03-30T21:12:11.865Z,22.92
2023-03-30T21:17:13.296Z,28.77
2023-03-30T21:22:14.726Z,30.77
2023-03-30T21:27:16.274Z,21.88
2023-03-30T21:32:17.671Z,25.75
2023-03-30T21:37:19.079Z,32.17
2023-03-30T21:42:20.497Z,27.65
2023-03-30T21:47:21.871Z,33.63
2023-03-30T21:52:23.346Z,25.60
2023-03-30T21:57:26.727Z,26.92
2023-03-30T22:02:28.214Z,25.40
2023-03-30T22:07:29.820Z,26.00
2023-03-30T22:12:31.488Z,28.85
2023-03-30T22:17:41.825Z,29.33
2023-03-30T22:22:43.777Z,27.45
2023-03-30T22:27:45.252Z,34.28
2023-03-30T22:32:46.991Z,23.20
2023-03-30T22:37:48.527Z,28.52
2023-03-30T22:42:50.820Z,24.15
2023-03-30T22:47:52.896Z,24.90
2023-03-30T22:52:55.133Z,22.95
2023-03-30T22:57:59.597Z,30.10
2023-03-30T23:03:02.922Z,29.92
2023-03-30T23:08:04.657Z,23.00
2023-03-30T23:13:06.044Z,22.90
2023-03-30T23:18:07.826Z,28.60
2023-03-30T23:23:09.367Z,28.63
2023-03-30T23:28:13.299Z,28.95
2023-03-30T23:33:14.910Z,29.13
2023-03-30T23:38:17.056Z,25.05
2023-03-30T23:43:18.552Z,28.85
2023-03-30T23:48:19.996Z,21.55
2023-03-30T23:53:21.461Z,26.13
2023-03-30T23:58:22.933Z,28.58
